createdAt,value
2018-12-07T00:09:49.974Z,1.22
2018-12-07T00:20:51.376Z,1.26
2018-12-07T00:31:56.646Z,1.55
2018-12-07T00:42:58.178Z,1.52
2018-12-07T00:54:04.001Z,1.79
2018-12-07T01:05:03.429Z,1.66
2018-12-07T01:16:03.222Z,1.84
2018-12-07T01:27:09.367Z,1.94
2018-12-07T01:38:12.959Z,2.10
2018-12-07T01:49:08.960Z,2.16
2018-12-07T02:00:07.091Z,2.30
2018-12-07T02:11:06.383Z,2.24
2018-12-07T02:22:11.231Z,2.32
2018-12-07T02:33:16.073Z,2.35
2018-12-07T02:44:13.973Z,2.31
2018-12-07T02:55:13.925Z,2.16
2018-12-07T03:06:18.841Z,2.13
2018-12-07T03:17:21.057Z,2.31
2018-12-07T03:28:25.347Z,2.37
2018-12-07T03:39:29.867Z,2.46
2018-12-07T03:50:28.378Z,2.44
2018-12-07T04:01:29.890Z,2.55
2018-12-07T04:12:30.427Z,2.34
2018-12-07T04:23:34.851Z,2.42
2018-12-07T04:34:36.128Z,2.53
2018-12-07T04:45:18.982Z,2.55
2018-12-07T04:56:19.944Z,2.66
2018-12-07T05:07:20.021Z,2.52
2018-12-07T05:18:21.779Z,2.67
2018-12-07T05:29:24.562Z,2.78
2018-12-07T05:40:29.603Z,2.86
2018-12-07T05:51:31.972Z,2.92
2018-12-07T06:02:35.196Z,2.95
2018-12-07T06:13:40.652Z,2.99
2018-12-07T06:24:41.327Z,2.99
2018-12-07T06:35:46.624Z,2.96
2018-12-07T06:46:47.679Z,3.04
2018-12-07T06:57:50.599Z,3.01
2018-12-07T07:08:54.431Z,3.09
2018-12-07T07:19:55.398Z,3.35
2018-12-07T07:30:57.626Z,3.57
2018-12-07T07:42:07.756Z,3.65
2018-12-07T07:53:06.201Z,3.80
2018-12-07T08:04:09.562Z,4.15
2018-12-07T08:15:14.428Z,4.38
2018-12-07T08:26:16.260Z,4.69
2018-12-07T08:37:18.101Z,5.18
2018-12-07T08:48:22.414Z,5.53
2018-12-07T08:59:28.819Z,6.03
2018-12-07T09:10:33.709Z,6.45
2018-12-07T09:21:35.648Z,6.87
2018-12-07T09:32:41.176Z,7.39
2018-12-07T09:43:41.007Z,7.72
2018-12-07T09:54:40.997Z,8.00
2018-12-07T10:05:46.899Z,8.36
2018-12-07T10:16:51.600Z,8.39
2018-12-07T10:27:55.961Z,8.32
2018-12-07T10:38:55.959Z,8.37
2018-12-07T10:50:00.072Z,8.50
2018-12-07T11:00:59.180Z,8.70
2018-12-07T11:12:01.206Z,10.06
2018-12-07T11:23:06.290Z,12.16
2018-12-07T11:34:05.327Z,10.43
2018-12-07T11:45:06.144Z,8.84
2018-12-07T11:56:06.353Z,8.95
2018-12-07T12:07:10.853Z,8.88
2018-12-07T12:18:10.846Z,9.22
2018-12-07T12:29:15.482Z,9.55
2018-12-07T12:40:18.613Z,10.99
2018-12-07T12:51:23.005Z,10.51
2018-12-07T13:02:23.816Z,10.21
2018-12-07T13:13:17.001Z,10.62
2018-12-07T13:24:21.702Z,10.99
2018-12-07T13:35:25.765Z,11.05
2018-12-07T13:46:26.604Z,10.39
2018-12-07T13:57:27.310Z,10.29
2018-12-07T14:08:26.495Z,9.63
2018-12-07T14:19:30.440Z,10.15
2018-12-07T14:30:30.250Z,9.86
2018-12-07T14:41:32.887Z,8.66
2018-12-07T14:52:32.133Z,7.96
2018-12-07T15:03:33.237Z,7.55
2018-12-07T15:14:35.188Z,6.94
2018-12-07T15:25:36.387Z,6.47
2018-12-07T15:36:39.790Z,6.17
2018-12-07T15:47:37.966Z,5.78
2018-12-07T15:58:33.394Z,5.77
2018-12-07T16:09:27.811Z,5.23
2018-12-07T16:20:26.251Z,5.08
2018-12-07T16:31:22.922Z,4.96
2018-12-07T16:42:22.241Z,4.68
2018-12-07T16:53:24.616Z,4.46
2018-12-07T17:04:20.925Z,4.23
2018-12-07T17:15:17.338Z,4.40
2018-12-07T17:26:20.014Z,4.46
2018-12-07T17:37:21.345Z,4.68
2018-12-07T17:48:22.947Z,5.05
2018-12-07T17:59:26.157Z,5.00
2018-12-07T18:10:30.618Z,4.96
2018-12-07T18:21:31.554Z,5.10
2018-12-07T18:32:23.596Z,4.93
2018-12-07T18:43:15.065Z,4.84
2018-12-07T18:54:14.757Z,5.13
2018-12-07T19:05:06.330Z,5.05
2018-12-07T19:16:01.141Z,4.99
2018-12-07T19:26:57.570Z,4.88
2018-12-07T19:37:52.048Z,5.02
2018-12-07T19:48:47.362Z,5.00
2018-12-07T19:59:35.584Z,5.08
2018-12-07T20:10:13.704Z,5.06
2018-12-07T20:21:03.690Z,4.99
2018-12-07T20:32:00.141Z,4.91
2018-12-07T20:43:00.286Z,4.96
2018-12-07T20:53:53.230Z,5.02
2018-12-07T21:04:56.212Z,5.28
2018-12-07T21:15:49.852Z,5.06
2018-12-07T21:26:45.729Z,5.17
2018-12-07T21:37:47.766Z,5.28
2018-12-07T21:48:47.874Z,5.42
2018-12-07T21:59:47.998Z,5.49
2018-12-07T22:10:48.198Z,5.53
2018-12-07T22:21:48.794Z,5.53
2018-12-07T22:32:46.426Z,5.57
2018-12-07T22:43:48.749Z,5.52
2018-12-07T22:55:00.071Z,5.57
2018-12-07T23:06:09.139Z,5.56
2018-12-07T23:17:04.743Z,5.63
2018-12-07T23:27:52.381Z,5.80
2018-12-07T23:38:48.173Z,5.83
2018-12-07T23:49:34.772Z,5.67
